Time;durP1;ratioP1;P1;durP2;ratioP2;P2;SDS_P1;SDS_P2;PMS_P1;PMS_P2;Temp;Humidity;BMP_temperature;BMP_pressure;BME280_temperature;BME280_humidity;BME280_pressure;Samples;Min_cycle;Max_cycle;Signal;HPM_P1;HPM_P2
2023/03/24 00:00:00;;;;;;;4.43;1.40;;;12.90;89.80;;;;;;4938084;29;20031;-80
2023/03/24 00:02:27;;;;;;;3.60;1.40;;;12.90;89.80;;;;;;4935355;29;20032;-80
2023/03/24 00:04:57;;;;;;;2.53;1.25;;;12.90;89.80;;;;;;4937509;29;20032;-80
2023/03/24 00:07:23;;;;;;;4.05;1.50;;;12.90;89.80;;;;;;4937028;29;20028;-79
2023/03/24 00:09:48;;;;;;;4.70;1.30;;;12.80;89.80;;;;;;4937627;29;20039;-79
2023/03/24 00:12:17;;;;;;;3.08;1.30;;;12.80;89.90;;;;;;4938482;29;20038;-79
2023/03/24 00:14:45;;;;;;;2.83;1.30;;;12.90;89.90;;;;;;4935254;29;20028;-80
2023/03/24 00:17:16;;;;;;;3.97;1.63;;;12.80;89.80;;;;;;4934823;29;20122;-79
2023/03/24 00:19:44;;;;;;;4.10;1.33;;;12.80;89.90;;;;;;4936706;29;20423;-80
2023/03/24 00:22:14;;;;;;;2.55;1.30;;;12.80;89.90;;;;;;4935790;29;20060;-79
2023/03/24 00:24:40;;;;;;;4.13;1.60;;;12.80;90.00;;;;;;4936659;29;20055;-79
2023/03/24 00:27:07;;;;;;;3.17;1.48;;;12.80;90.00;;;;;;4936165;29;20028;-80
2023/03/24 00:29:35;;;;;;;2.25;1.38;;;12.80;90.00;;;;;;4935622;29;20024;-80
2023/03/24 00:32:00;;;;;;;3.05;1.20;;;12.80;90.00;;;;;;4935314;29;20112;-80
2023/03/24 00:34:26;;;;;;;2.47;1.27;;;12.80;90.00;;;;;;4934742;29;20055;-80
2023/03/24 00:36:51;;;;;;;3.65;1.20;;;12.80;90.00;;;;;;4934629;29;20397;-79
2023/03/24 00:39:18;;;;;;;3.88;1.20;;;12.80;90.00;;;;;;4934775;29;20504;-79
2023/03/24 00:41:46;;;;;;;4.03;1.40;;;12.80;90.00;;;;;;4934289;29;20028;-79
2023/03/24 00:44:16;;;;;;;3.42;1.25;;;12.80;90.00;;;;;;4934924;29;20456;-79
2023/03/24 00:46:44;;;;;;;3.22;1.20;;;12.80;90.00;;;;;;4934657;29;20079;-79
2023/03/24 00:49:11;;;;;;;4.70;1.45;;;12.80;90.00;;;;;;4934635;29;20449;-79
2023/03/24 00:51:39;;;;;;;3.30;1.05;;;12.80;90.00;;;;;;4934207;29;20024;-80
2023/03/24 00:54:08;;;;;;;2.97;1.20;;;12.80;90.00;;;;;;4935509;29;20066;-78
2023/03/24 00:56:36;;;;;;;7.13;1.50;;;12.80;90.10;;;;;;4935216;29;20027;-79
2023/03/24 00:59:02;;;;;;;2.70;1.40;;;12.80;90.10;;;;;;4934699;29;20028;-80
2023/03/24 01:01:32;;;;;;;3.83;1.35;;;12.80;90.10;;;;;;4934504;29;20036;-79
2023/03/24 01:03:58;;;;;;;2.70;1.33;;;12.80;90.10;;;;;;4936436;29;20107;-80
2023/03/24 01:06:24;;;;;;;3.03;1.15;;;12.80;90.10;;;;;;4936577;29;20027;-79
2023/03/24 01:08:52;;;;;;;2.70;1.20;;;12.80;90.10;;;;;;4934476;29;20035;-79
2023/03/24 01:11:21;;;;;;;2.47;1.17;;;12.80;90.10;;;;;;4934583;29;20024;-78
2023/03/24 01:13:47;;;;;;;2.97;1.10;;;12.80;90.10;;;;;;4934824;29;20083;-79
2023/03/24 01:16:13;;;;;;;1.75;0.90;;;12.80;90.10;;;;;;4935111;29;20028;-80
2023/03/24 01:18:39;;;;;;;2.15;1.08;;;12.80;90.10;;;;;;4934546;29;20028;-79
2023/03/24 01:21:07;;;;;;;5.65;1.38;;;12.70;90.20;;;;;;4935678;29;20023;-79
2023/03/24 01:23:33;;;;;;;1.92;1.17;;;12.80;90.20;;;;;;4938066;29;20028;-81
2023/03/24 01:25:59;;;;;;;2.22;1.10;;;12.70;90.20;;;;;;4943457;29;20035;-81
2023/03/24 01:28:24;;;;;;;3.05;1.30;;;12.70;90.20;;;;;;4941483;29;20492;-79
2023/03/24 01:30:51;;;;;;;2.25;1.00;;;12.70;90.20;;;;;;4942969;29;20023;-81
2023/03/24 01:33:17;;;;;;;4.05;1.30;;;12.70;90.40;;;;;;4942985;29;20019;-80
2023/03/24 01:35:42;;;;;;;2.70;1.33;;;12.70;90.20;;;;;;4941840;29;20147;-80
2023/03/24 01:38:10;;;;;;;1.98;1.10;;;12.70;90.20;;;;;;4942187;29;20042;-80
2023/03/24 01:40:38;;;;;;;2.72;1.17;;;12.70;90.20;;;;;;4942200;29;20043;-79
2023/03/24 01:43:06;;;;;;;2.53;1.27;;;12.70;90.20;;;;;;4940679;29;20036;-80
2023/03/24 01:45:50;;;;;;;2.33;1.08;;;12.70;90.20;;;;;;4942140;29;20032;-80
2023/03/24 01:48:17;;;;;;;3.03;1.42;;;12.70;90.20;;;;;;4941100;29;20114;-80
2023/03/24 01:50:47;;;;;;;2.92;1.35;;;12.70;90.20;;;;;;4939474;29;20462;-80
2023/03/24 01:53:14;;;;;;;2.78;1.20;;;12.70;90.30;;;;;;4939637;29;20028;-80
2023/03/24 01:55:41;;;;;;;1.95;1.13;;;12.70;90.20;;;;;;4938750;29;20039;-80
2023/03/24 01:58:07;;;;;;;3.00;1.30;;;12.70;90.20;;;;;;4940262;29;20397;-81
2023/03/24 02:00:33;;;;;;;2.78;1.30;;;12.70;90.30;;;;;;4937055;29;20027;-80
2023/03/24 02:03:06;;;;;;;2.40;1.00;;;12.70;90.20;;;;;;4937311;29;20027;-79
2023/03/24 02:05:35;;;;;;;3.30;1.38;;;12.70;90.20;;;;;;4943287;29;20481;-80
2023/03/24 02:08:27;;;;;;;2.85;1.35;;;12.70;90.30;;;;;;4942776;29;20036;-79
2023/03/24 02:10:54;;;;;;;2.03;0.93;;;12.70;90.30;;;;;;4939572;29;20031;-80
2023/03/24 02:13:21;;;;;;;2.17;1.00;;;12.70;90.20;;;;;;4942809;29;20024;-79
2023/03/24 02:16:11;;;;;;;2.90;1.02;;;12.70;90.20;;;;;;4945995;29;20384;-80
2023/03/24 02:18:45;;;;;;;3.10;1.00;;;12.70;90.30;;;;;;4945456;29;20052;-81
2023/03/24 02:21:49;;;;;;;2.72;1.10;;;12.70;90.30;;;;;;4943981;29;20082;-81
2023/03/24 02:24:34;;;;;;;2.78;1.13;;;12.70;90.30;;;;;;4944658;29;20106;-80
2023/03/24 02:27:21;;;;;;;2.20;1.10;;;12.70;90.30;;;;;;4943191;29;20111;-80
2023/03/24 02:30:12;;;;;;;2.08;1.00;;;12.70;90.30;;;;;;4943585;29;20020;-81
2023/03/24 02:33:04;;;;;;;2.33;1.15;;;12.70;90.30;;;;;;4943334;29;20034;-80
2023/03/24 02:36:11;;;;;;;2.65;1.10;;;12.70;90.30;;;;;;4944115;29;20051;-80
2023/03/24 02:38:56;;;;;;;1.98;1.00;;;12.70;90.30;;;;;;4944514;29;20036;-80
2023/03/24 02:41:44;;;;;;;1.73;0.98;;;12.70;90.30;;;;;;4942874;29;20028;-79
2023/03/24 02:44:23;;;;;;;2.05;1.15;;;12.70;90.30;;;;;;4943394;29;20032;-80
2023/03/24 02:46:59;;;;;;;1.88;1.00;;;12.70;90.30;;;;;;4938341;29;20032;-79
2023/03/24 02:50:13;;;;;;;1.95;1.08;;;12.70;90.30;;;;;;4938548;29;20063;-79
2023/03/24 02:53:10;;;;;;;2.78;1.10;;;12.70;90.30;;;;;;4917015;29;20043;-79
2023/03/24 02:55:43;;;;;;;1.90;1.10;;;12.70;90.30;;;;;;4937247;29;20028;-79
2023/03/24 02:58:21;;;;;;;2.22;1.00;;;12.60;90.40;;;;;;4936645;29;20118;-80
2023/03/24 03:00:58;;;;;;;2.47;1.30;;;12.70;90.40;;;;;;4937724;29;20079;-80
2023/03/24 03:03:37;;;;;;;1.75;0.90;;;12.70;90.30;;;;;;4939390;29;20525;-80
2023/03/24 03:06:24;;;;;;;4.00;1.30;;;12.70;90.60;;;;;;4941410;29;20020;-80
2023/03/24 03:08:50;;;;;;;1.30;0.90;;;12.60;90.30;;;;;;4936851;29;20129;-78
2023/03/24 03:11:16;;;;;;;1.52;0.90;;;12.60;90.40;;;;;;4936327;29;20028;-79
2023/03/24 03:13:51;;;;;;;2.05;0.98;;;12.60;90.40;;;;;;4937217;29;20213;-79
2023/03/24 03:16:33;;;;;;;2.17;0.98;;;12.70;90.30;;;;;;4937481;29;20055;-80
2023/03/24 03:19:02;;;;;;;1.85;1.05;;;12.60;90.30;;;;;;4938976;29;20035;-79
2023/03/24 03:21:33;;;;;;;1.50;1.00;;;12.60;90.40;;;;;;4940507;29;20485;-79
2023/03/24 03:24:10;;;;;;;2.72;1.20;;;12.60;90.30;;;;;;4940359;29;20031;-80
2023/03/24 03:26:36;;;;;;;2.67;1.20;;;12.60;90.40;;;;;;4938327;29;20452;-79
2023/03/24 03:29:12;;;;;;;2.28;1.00;;;12.60;90.40;;;;;;4938227;29;20381;-79
2023/03/24 03:31:43;;;;;;;2.55;1.20;;;12.70;90.30;;;;;;4937662;29;20020;-80
2023/03/24 03:34:41;;;;;;;1.50;0.90;;;12.60;90.30;;;;;;4937899;29;20118;-80
2023/03/24 03:37:23;;;;;;;3.00;1.13;;;12.60;90.30;;;;;;4937935;29;20118;-80
2023/03/24 03:40:11;;;;;;;2.08;1.02;;;12.60;90.30;;;;;;4937606;29;20612;-80
2023/03/24 03:42:37;;;;;;;1.40;0.90;;;12.60;90.30;;;;;;4936820;29;20485;-80
2023/03/24 03:45:03;;;;;;;1.45;1.05;;;12.60;90.30;;;;;;4938826;29;20429;-80
2023/03/24 03:47:30;;;;;;;1.40;1.00;;;12.60;90.30;;;;;;4937256;29;20039;-79
2023/03/24 03:49:55;;;;;;;3.10;1.40;;;12.60;90.40;;;;;;4938445;29;20019;-80
2023/03/24 03:52:21;;;;;;;2.42;1.10;;;12.60;90.40;;;;;;4935767;29;20370;-79
2023/03/24 03:54:46;;;;;;;2.67;1.35;;;12.60;90.40;;;;;;4936428;29;20531;-79
2023/03/24 03:57:13;;;;;;;2.47;1.10;;;12.60;90.30;;;;;;4936969;29;20411;-79
2023/03/24 03:59:39;;;;;;;2.90;1.00;;;12.60;90.40;;;;;;4936058;29;20097;-80
2023/03/24 04:02:29;;;;;;;2.10;1.00;;;12.70;90.40;;;;;;4936739;29;20027;-79
2023/03/24 04:05:25;;;;;;;1.35;0.90;;;12.60;90.40;;;;;;4935924;29;20019;-80
2023/03/24 04:08:17;;;;;;;1.48;0.82;;;12.60;90.40;;;;;;4953701;23;20048;-84
2023/03/24 04:11:10;;;;;;;1.67;0.95;;;12.60;90.40;;;;;;4905500;29;20088;-83
2023/03/24 04:13:54;;;;;;;1.70;1.00;;;12.60;90.40;;;;;;4915970;29;20020;-84
2023/03/24 04:16:42;;;;;;;1.42;0.90;;;12.60;90.40;;;;;;4915974;29;20028;-83
2023/03/24 04:19:35;;;;;;;2.05;1.23;;;12.60;90.40;;;;;;4917061;29;20442;-84
2023/03/24 04:22:25;;;;;;;1.85;1.10;;;12.60;90.40;;;;;;4917086;29;20039;-84
2023/03/24 04:24:58;;;;;;;2.00;1.13;;;12.60;90.40;;;;;;4915122;29;20068;-83
2023/03/24 04:27:38;;;;;;;1.95;0.90;;;12.60;90.40;;;;;;4915951;29;20036;-84
2023/03/24 04:30:16;;;;;;;2.10;1.10;;;12.60;90.40;;;;;;4915688;29;20080;-83
2023/03/24 04:32:47;;;;;;;1.88;1.00;;;12.60;90.60;;;;;;4915855;29;20090;-84
2023/03/24 04:35:30;;;;;;;1.90;1.10;;;12.60;90.40;;;;;;4915798;29;20067;-83
2023/03/24 04:38:01;;;;;;;2.47;1.00;;;12.60;90.40;;;;;;4915560;29;20055;-84
2023/03/24 04:40:28;;;;;;;1.90;1.10;;;12.60;90.40;;;;;;4915617;29;20029;-82
2023/03/24 04:42:56;;;;;;;2.20;1.10;;;12.60;90.50;;;;;;4915364;29;20070;-83
2023/03/24 04:45:24;;;;;;;2.10;1.13;;;12.60;90.40;;;;;;4917019;29;20032;-86
2023/03/24 04:47:57;;;;;;;1.67;0.98;;;12.60;90.40;;;;;;4916587;29;20020;-83
2023/03/24 04:50:36;;;;;;;1.95;0.95;;;12.60;90.40;;;;;;4916776;29;20103;-84
2023/03/24 04:53:04;;;;;;;2.35;1.20;;;12.60;90.40;;;;;;4915630;29;20374;-84
2023/03/24 04:55:42;;;;;;;2.03;1.10;;;12.60;90.40;;;;;;4915565;29;20137;-84
2023/03/24 04:58:08;;;;;;;1.95;1.10;;;12.60;90.50;;;;;;4915428;29;20039;-84
2023/03/24 05:00:35;;;;;;;2.22;1.20;;;12.60;90.50;;;;;;4915158;29;20028;-84
2023/03/24 05:03:01;;;;;;;2.35;1.27;;;12.60;90.50;;;;;;4915527;29;20069;-83
2023/03/24 05:05:27;;;;;;;1.75;0.93;;;12.60;90.50;;;;;;4915291;29;20024;-83
2023/03/24 05:07:53;;;;;;;2.35;1.10;;;12.60;90.50;;;;;;4915074;29;20039;-83
2023/03/24 05:10:19;;;;;;;2.45;1.08;;;12.60;90.50;;;;;;4916436;29;20025;-83
2023/03/24 05:12:45;;;;;;;2.15;1.10;;;12.60;90.50;;;;;;4915212;29;20046;-84
2023/03/24 05:15:10;;;;;;;2.03;1.10;;;12.60;90.50;;;;;;4915167;29;20556;-83
2023/03/24 05:17:36;;;;;;;2.88;1.27;;;12.60;90.50;;;;;;4916364;29;20393;-84
2023/03/24 05:20:02;;;;;;;2.45;1.10;;;12.60;90.50;;;;;;4916368;29;20095;-83
2023/03/24 05:22:27;;;;;;;2.40;1.10;;;12.60;90.50;;;;;;4915008;29;20028;-84
2023/03/24 05:24:53;;;;;;;2.95;1.23;;;12.60;90.60;;;;;;4916248;29;20039;-82
2023/03/24 05:27:18;;;;;;;2.47;1.20;;;12.60;90.60;;;;;;4915017;29;20032;-84
2023/03/24 05:29:44;;;;;;;2.13;1.15;;;12.60;90.60;;;;;;4916463;29;20072;-83
2023/03/24 05:32:09;;;;;;;1.85;1.00;;;12.60;90.60;;;;;;4914987;29;20389;-83
2023/03/24 05:34:34;;;;;;;3.22;1.30;;;12.60;90.60;;;;;;4915215;29;20058;-84
2023/03/24 05:37:00;;;;;;;3.50;1.45;;;12.60;90.60;;;;;;4917165;29;20060;-84
2023/03/24 05:39:25;;;;;;;2.10;1.10;;;12.60;90.60;;;;;;4920228;29;20024;-84
2023/03/24 05:41:51;;;;;;;2.47;1.27;;;12.60;90.60;;;;;;4917170;29;20099;-83
2023/03/24 05:44:16;;;;;;;1.48;1.02;;;12.60;90.60;;;;;;4918630;29;20035;-84
2023/03/24 05:46:42;;;;;;;2.85;1.17;;;12.60;90.60;;;;;;4934628;29;20059;-85
2023/03/24 05:49:07;;;;;;;2.42;1.27;;;12.60;90.60;;;;;;4931316;29;20043;-84
2023/03/24 05:51:33;;;;;;;2.60;1.20;;;12.60;90.60;;;;;;4916853;29;20028;-83
2023/03/24 05:54:04;;;;;;;1.40;1.00;;;12.60;90.60;;;;;;4931723;29;20028;-84
2023/03/24 05:56:31;;;;;;;2.63;1.10;;;12.90;90.70;;;;;;4929032;29;20072;-84
2023/03/24 05:58:59;;;;;;;1.73;1.13;;;12.60;90.50;;;;;;4931088;29;20032;-84
2023/03/24 06:01:25;;;;;;;2.83;1.30;;;12.70;90.50;;;;;;4915251;29;20595;-83
2023/03/24 06:03:52;;;;;;;3.40;1.13;;;12.50;90.50;;;;;;4915850;29;20028;-83
2023/03/24 06:07:04;;;;;;;2.25;1.00;;;12.60;90.50;;;;;;4915640;29;20028;-83
2023/03/24 06:09:45;;;;;;;2.58;1.13;;;12.60;90.50;;;;;;4884709;29;20048;-84
2023/03/24 06:12:12;;;;;;;1.63;1.10;;;12.70;90.60;;;;;;4916589;29;20028;-83
2023/03/24 06:15:07;;;;;;;2.17;1.15;;;12.60;90.50;;;;;;4934395;29;20050;-83
2023/03/24 06:17:43;;;;;;;1.60;1.00;;;12.80;90.60;;;;;;4932705;29;20039;-84
2023/03/24 06:20:21;;;;;;;1.73;1.10;;;12.50;90.50;;;;;;4915320;29;20070;-83
2023/03/24 06:22:59;;;;;;;;;;;;;;;;;;;;;
2023/03/24 06:26:13;;;;;;;1.92;1.17;;;12.60;90.50;;;;;;4916597;29;20038;-82
2023/03/24 06:29:01;;;;;;;1.95;1.10;;;12.50;90.50;;;;;;4913674;29;20058;-83
2023/03/24 06:31:39;;;;;;;3.15;1.58;;;12.60;90.50;;;;;;4915194;29;20051;-83
2023/03/24 06:34:15;;;;;;;1.90;1.25;;;12.70;90.60;;;;;;4915042;29;20040;-83
2023/03/24 08:43:47;;;;;;;2.05;0.93;;;13.60;86.80;;;;;;5110115;23;20055;-85
2023/03/24 09:29:24;;;;;;;1.98;1.05;;;13.60;86.90;;;;;;5484311;23;20058;-86
2023/03/24 09:32:04;;;;;;;1.67;0.93;;;13.60;86.80;;;;;;4951118;29;20032;-87
2023/03/24 10:12:27;;;;;;;1.23;1.00;;;13.80;86.40;;;;;;4960303;28;20055;-81
2023/03/24 10:15:23;;;;;;;3.00;1.10;;;13.80;86.40;;;;;;4957904;28;20051;-81
2023/03/24 10:17:55;;;;;;;2.13;1.00;;;13.80;86.30;;;;;;4955844;29;20031;-81
2023/03/24 10:20:24;;;;;;;;;;;13.80;86.30;;;;;;4935967;29;20039;-81
2023/03/24 10:23:14;;;;;;;2.03;1.00;;;13.80;86.30;;;;;;4915810;29;19907;-80
2023/03/24 10:25:53;;;;;;;2.10;1.00;;;13.80;86.30;;;;;;4957751;28;20033;-81
2023/03/24 10:28:37;;;;;;;2.05;1.00;;;13.90;86.30;;;;;;4952572;29;20071;-81
2023/03/24 10:31:09;;;;;;;2.28;1.00;;;13.90;86.20;;;;;;4927531;29;20103;-81
2023/03/24 10:33:41;;;;;;;1.65;0.98;;;13.90;86.30;;;;;;4955829;29;20020;-81
2023/03/24 10:36:13;;;;;;;1.58;0.90;;;13.80;86.30;;;;;;4956216;29;20377;-81
2023/03/24 10:38:39;;;;;;;2.58;1.00;;;13.80;86.40;;;;;;4949682;29;20036;-80
2023/03/24 10:41:05;;;;;;;2.05;0.95;;;13.80;86.60;;;;;;4930469;29;20035;-80
2023/03/24 10:43:31;;;;;;;2.05;1.00;;;13.70;86.60;;;;;;4957329;29;20027;-81
2023/03/24 10:45:58;;;;;;;2.35;0.98;;;13.70;86.70;;;;;;4957046;29;20113;-80
2023/03/24 10:48:40;;;;;;;2.28;0.80;;;13.70;86.80;;;;;;4951191;29;20098;-81
2023/03/24 10:51:12;;;;;;;2.58;1.00;;;13.70;86.90;;;;;;4942909;29;20035;-81
2023/03/24 10:53:38;;;;;;;1.90;0.80;;;13.60;86.90;;;;;;4919305;29;20024;-81
2023/03/24 10:56:04;;;;;;;2.30;1.00;;;13.60;87.00;;;;;;4922519;29;20020;-81
2023/03/24 10:58:39;;;;;;;1.58;1.10;;;13.60;87.00;;;;;;4922392;29;20059;-81
2023/03/24 11:01:29;;;;;;;2.60;1.10;;;13.60;87.10;;;;;;4927890;29;20490;-81
2023/03/24 11:04:06;;;;;;;2.13;1.10;;;13.60;87.10;;;;;;4951842;29;20755;-81
2023/03/24 11:06:32;;;;;;;2.33;1.00;;;13.60;87.20;;;;;;4956352;29;20046;-81
2023/03/24 11:09:18;;;;;;;2.72;1.00;;;13.60;87.30;;;;;;4947187;28;20556;-81
2023/03/24 11:11:43;;;;;;;2.13;0.82;;;13.60;87.40;;;;;;4939552;29;20440;-81
2023/03/24 11:14:24;;;;;;;3.05;0.90;;;13.60;87.40;;;;;;4955720;29;20078;-81
2023/03/24 11:16:51;;;;;;;2.00;1.05;;;13.50;87.40;;;;;;4956023;29;20036;-81
2023/03/24 11:19:18;;;;;;;2.88;1.10;;;13.50;87.40;;;;;;4944146;29;20036;-81
2023/03/24 11:21:43;;;;;;;2.47;0.90;;;13.50;87.40;;;;;;4928327;29;20032;-80
2023/03/24 11:24:15;;;;;;;1.15;0.88;;;13.50;87.40;;;;;;4937698;29;20096;-81
2023/03/24 11:26:44;;;;;;;;;;;13.50;87.40;;;;;;4936712;29;20023;-81
2023/03/24 11:29:17;;;;;;;1.85;0.98;;;13.50;87.40;;;;;;4930239;29;19915;-81
2023/03/24 11:31:52;;;;;;;1.95;0.90;;;13.50;87.40;;;;;;4923949;29;20031;-81
2023/03/24 11:34:24;;;;;;;2.08;0.93;;;13.50;87.40;;;;;;4916927;29;20084;-81
2023/03/24 11:36:54;;;;;;;2.20;1.00;;;13.60;87.50;;;;;;4916910;29;20020;-81
2023/03/24 11:39:28;;;;;;;1.85;0.90;;;13.50;87.40;;;;;;4921944;29;20042;-81
2023/03/24 11:42:11;;;;;;;2.15;1.00;;;13.60;87.30;;;;;;4940237;29;20480;-81
2023/03/24 11:44:37;;;;;;;1.35;0.80;;;13.60;87.10;;;;;;4938881;29;20175;-80
2023/03/24 11:47:10;;;;;;;1.88;1.00;;;13.70;87.00;;;;;;4937202;29;20082;-81
2023/03/24 11:49:48;;;;;;;2.00;1.00;;;13.60;86.90;;;;;;4937778;29;20096;-81
2023/03/24 11:52:22;;;;;;;1.42;0.70;;;13.70;86.90;;;;;;4939604;29;20593;-80
2023/03/24 11:54:47;;;;;;;2.60;1.00;;;13.70;86.80;;;;;;4936515;29;20159;-81
2023/03/24 11:57:20;;;;;;;2.25;1.00;;;13.70;86.80;;;;;;4942710;29;20484;-81
2023/03/24 11:59:56;;;;;;;2.03;0.98;;;13.70;86.90;;;;;;4944085;29;20034;-82
2023/03/24 12:02:47;;;;;;;1.85;0.80;;;13.70;86.80;;;;;;4949541;29;20504;-81
2023/03/24 12:05:20;;;;;;;2.55;0.80;;;13.70;86.80;;;;;;4962012;29;20027;-82
2023/03/24 12:07:54;;;;;;;1.85;0.70;;;13.70;86.80;;;;;;4963689;29;20035;-81
2023/03/24 12:10:28;;;;;;;2.63;0.90;;;13.70;86.80;;;;;;4936631;29;20031;-81
2023/03/24 12:12:57;;;;;;;2.50;0.80;;;13.70;86.80;;;;;;4956083;29;20023;-81
2023/03/24 12:15:55;;;;;;;2.28;0.80;;;13.70;86.80;;;;;;4961244;29;20062;-82
2023/03/24 12:18:42;;;;;;;1.65;0.80;;;13.70;86.70;;;;;;4956605;28;20559;-80
2023/03/24 12:21:20;;;;;;;2.13;0.90;;;13.80;86.60;;;;;;4930793;29;20508;-82
2023/03/24 12:24:04;;;;;;;1.70;0.68;;;13.80;86.50;;;;;;4920552;29;20024;-82
2023/03/24 12:26:32;;;;;;;1.65;0.80;;;13.90;86.40;;;;;;4920283;29;20105;-82
2023/03/24 12:29:37;;;;;;;2.42;0.90;;;13.90;86.40;;;;;;4925556;29;20035;-82
2023/03/24 12:32:33;;;;;;;1.55;0.80;;;13.90;86.30;;;;;;4934443;29;20035;-82
2023/03/24 12:35:19;;;;;;;1.38;0.80;;;13.90;86.40;;;;;;4957777;29;20019;-81
2023/03/24 12:38:06;;;;;;;2.45;0.98;;;13.90;86.40;;;;;;4955319;28;20038;-81
2023/03/24 12:41:09;;;;;;;2.22;0.88;;;13.80;86.50;;;;;;4927170;29;20059;-81
2023/03/24 12:43:41;;;;;;;1.20;0.68;;;13.80;86.60;;;;;;4922827;29;20567;-81
2023/03/24 12:46:20;;;;;;;1.17;0.80;;;13.70;86.60;;;;;;4957438;28;20511;-82
2023/03/24 12:49:33;;;;;;;2.70;1.10;;;13.80;86.70;;;;;;4952784;29;20159;-81
2023/03/24 12:52:22;;;;;;;2.13;0.75;;;13.80;86.70;;;;;;4927363;29;20040;-82
2023/03/24 12:55:03;;;;;;;1.17;0.70;;;13.80;86.70;;;;;;4920877;29;20036;-82
2023/03/24 12:57:47;;;;;;;;;;;13.80;86.60;;;;;;4923026;29;20020;-81
2023/03/24 13:00:41;;;;;;;1.30;0.80;;;13.80;86.70;;;;;;4934932;29;19921;-80
2023/03/24 13:03:28;;;;;;;2.03;0.80;;;13.80;86.70;;;;;;4948396;29;20038;-80
2023/03/24 13:05:58;;;;;;;2.00;0.88;;;13.80;86.70;;;;;;4939294;29;20032;-80
2023/03/24 13:08:31;;;;;;;1.10;0.70;;;13.80;86.60;;;;;;4937808;29;20063;-81
2023/03/24 13:11:01;;;;;;;2.00;1.10;;;13.80;86.60;;;;;;4935960;29;20477;-79
2023/03/24 13:13:42;;;;;;;2.05;0.80;;;13.80;86.50;;;;;;4957117;29;20023;-80
2023/03/24 13:16:10;;;;;;;;;;;13.80;86.50;;;;;;4959466;28;20058;-79
2023/03/24 13:18:50;;;;;;;1.60;0.70;;;13.80;86.50;;;;;;4951035;28;19926;-79
2023/03/24 13:21:24;;;;;;;2.08;0.80;;;13.70;86.70;;;;;;4935068;29;20035;-81
2023/03/24 13:23:58;;;;;;;1.88;0.80;;;13.80;86.80;;;;;;4943072;28;20039;-81
2023/03/24 13:26:50;;;;;;;1.65;0.80;;;13.70;86.80;;;;;;4939098;29;20473;-81
2023/03/24 13:29:40;;;;;;;2.28;0.80;;;13.70;87.00;;;;;;4934630;29;20105;-79
2023/03/24 13:32:20;;;;;;;2.22;0.80;;;13.70;87.10;;;;;;4950230;29;20028;-81
2023/03/24 13:34:52;;;;;;;1.05;0.70;;;13.70;87.10;;;;;;4956419;29;20031;-79
2023/03/24 13:37:26;;;;;;;2.17;0.98;;;13.70;87.00;;;;;;4958957;28;20416;-81
2023/03/24 13:39:56;;;;;;;2.30;0.90;;;13.70;86.90;;;;;;4945236;29;20020;-81
2023/03/24 13:42:48;;;;;;;1.88;0.68;;;13.70;87.00;;;;;;4940000;28;20031;-80
2023/03/24 13:45:46;;;;;;;1.65;0.80;;;13.70;87.00;;;;;;4936401;29;20019;-80
2023/03/24 13:48:11;;;;;;;1.55;0.60;;;13.60;86.90;;;;;;4933019;29;20032;-81
2023/03/24 13:50:50;;;;;;;1.40;0.80;;;13.60;86.90;;;;;;4920843;29;20039;-80
2023/03/24 13:53:16;;;;;;;1.88;0.88;;;13.70;86.90;;;;;;4925061;29;20030;-81
2023/03/24 13:56:03;;;;;;;1.63;0.60;;;13.70;86.80;;;;;;4955128;29;20027;-80
2023/03/24 13:58:46;;;;;;;1.27;0.80;;;13.70;86.80;;;;;;4950727;28;20428;-81
2023/03/24 14:01:11;;;;;;;1.63;0.70;;;13.70;86.80;;;;;;4938827;29;20135;-80
2023/03/24 14:03:45;;;;;;;1.85;0.77;;;13.60;86.80;;;;;;4938523;29;20108;-80
2023/03/24 14:06:16;;;;;;;2.30;0.65;;;13.70;86.90;;;;;;4939116;29;20047;-81
2023/03/24 14:08:50;;;;;;;2.37;0.80;;;13.70;86.90;;;;;;4938112;29;20059;-81
2023/03/24 14:11:34;;;;;;;0.88;0.63;;;13.60;87.00;;;;;;4941577;29;20408;-81
2023/03/24 14:14:13;;;;;;;2.35;0.98;;;13.60;87.00;;;;;;4937173;29;20038;-80
2023/03/24 14:16:56;;;;;;;1.88;0.80;;;13.60;87.00;;;;;;4940128;29;20051;-81
2023/03/24 14:19:39;;;;;;;1.88;0.80;;;13.60;87.10;;;;;;4939692;29;20027;-81
2023/03/24 14:22:34;;;;;;;1.45;0.80;;;13.60;87.10;;;;;;4938267;29;20417;-81
2023/03/24 14:25:03;;;;;;;1.70;0.90;;;13.60;87.20;;;;;;4938562;29;20404;-81
2023/03/24 14:27:41;;;;;;;1.67;0.80;;;13.50;87.10;;;;;;4939417;29;20159;-81
2023/03/24 14:30:09;;;;;;;2.63;0.80;;;13.60;87.20;;;;;;4931407;29;20035;-80
2023/03/24 14:32:56;;;;;;;1.85;0.80;;;13.60;87.30;;;;;;4919837;29;20410;-81
2023/03/24 14:35:44;;;;;;;0.70;0.60;;;13.50;87.20;;;;;;4917957;29;20123;-81
2023/03/24 14:38:16;;;;;;;2.33;0.90;;;13.50;87.30;;;;;;4918520;29;20031;-81
2023/03/24 14:40:48;;;;;;;2.17;0.80;;;13.50;87.30;;;;;;4926931;29;20412;-81
2023/03/24 14:43:48;;;;;;;1.83;0.80;;;13.50;87.40;;;;;;4938027;29;20028;-80
2023/03/24 14:46:59;;;;;;;1.90;0.70;;;13.50;87.40;;;;;;4937461;29;20032;-80
2023/03/24 14:49:31;;;;;;;2.47;0.90;;;13.50;87.50;;;;;;4925301;29;20074;-81
2023/03/24 14:52:08;;;;;;;1.45;0.70;;;13.50;87.50;;;;;;4932161;29;20020;-80
2023/03/24 14:54:37;;;;;;;1.60;0.88;;;13.50;88.10;;;;;;4937803;29;20032;-80
2023/03/24 14:57:04;;;;;;;1.73;0.80;;;13.50;87.60;;;;;;4937729;29;20548;-80
2023/03/24 14:59:45;;;;;;;2.08;0.80;;;13.40;87.60;;;;;;4937030;29;20055;-80
2023/03/24 15:02:14;;;;;;;3.13;0.90;;;13.40;87.70;;;;;;4939712;29;20028;-81
2023/03/24 15:04:43;;;;;;;1.38;0.73;;;13.40;87.70;;;;;;4936301;29;20104;-80
2023/03/24 15:07:13;;;;;;;1.48;0.88;;;13.40;87.70;;;;;;4936552;29;20079;-80
2023/03/24 15:09:47;;;;;;;3.45;0.85;;;13.40;87.70;;;;;;4931611;29;20028;-82
2023/03/24 15:12:13;;;;;;;1.83;0.70;;;13.40;87.80;;;;;;4931292;29;20040;-83
2023/03/24 15:14:38;;;;;;;2.38;0.80;;;13.40;87.80;;;;;;4932707;29;20408;-82
2023/03/24 15:17:23;;;;;;;3.03;0.95;;;13.40;87.90;;;;;;4939152;29;20481;-82
2023/03/24 15:19:52;;;;;;;1.98;0.70;;;13.40;87.90;;;;;;4942654;29;20024;-79
2023/03/24 15:22:18;;;;;;;1.90;0.60;;;13.30;87.80;;;;;;4947029;29;20110;-80
2023/03/24 15:24:46;;;;;;;2.40;0.80;;;13.40;87.90;;;;;;4942189;29;20054;-79
2023/03/24 15:27:21;;;;;;;2.60;0.85;;;13.40;88.00;;;;;;4939101;29;20439;-78
2023/03/24 15:29:53;;;;;;;2.25;0.77;;;13.30;87.90;;;;;;4943322;28;20641;-78
2023/03/24 15:32:21;;;;;;;2.72;0.80;;;13.30;88.00;;;;;;4939853;29;20052;-81
2023/03/24 15:34:49;;;;;;;2.25;0.82;;;13.30;88.00;;;;;;4957211;29;20051;-81
2023/03/24 15:37:30;;;;;;;2.50;0.85;;;13.30;88.00;;;;;;4961549;28;20050;-82
2023/03/24 15:39:56;;;;;;;0.90;0.70;;;13.20;88.00;;;;;;4945285;29;20028;-78
2023/03/24 15:42:23;;;;;;;1.83;0.90;;;13.30;88.00;;;;;;4926789;29;20059;-82
2023/03/24 15:44:50;;;;;;;7.90;0.93;;;13.30;88.10;;;;;;4921322;29;20516;-81
2023/03/24 15:47:24;;;;;;;1.38;0.70;;;13.30;88.10;;;;;;4920419;29;20036;-80
2023/03/24 15:49:58;;;;;;;1.48;0.70;;;13.30;88.10;;;;;;4932047;29;20559;-78
2023/03/24 15:52:33;;;;;;;1.77;0.80;;;13.30;88.10;;;;;;4951375;29;20024;-78
2023/03/24 15:55:20;;;;;;;1.45;0.60;;;13.30;88.10;;;;;;4958009;29;20381;-81
2023/03/24 15:57:46;;;;;;;2.05;0.82;;;13.30;88.10;;;;;;4946373;28;20099;-80
2023/03/24 16:00:15;;;;;;;1.35;0.70;;;13.30;88.20;;;;;;4944534;29;20059;-78
2023/03/24 16:02:50;;;;;;;1.13;0.60;;;13.30;88.20;;;;;;4933445;29;20042;-78
2023/03/24 16:05:21;;;;;;;1.80;0.80;;;13.30;88.20;;;;;;4935951;29;20019;-78
2023/03/24 16:08:03;;;;;;;1.25;0.73;;;13.30;88.20;;;;;;4938270;29;20024;-78
2023/03/24 16:10:39;;;;;;;1.85;0.70;;;13.30;88.20;;;;;;4949602;29;20038;-81
2023/03/24 16:13:13;;;;;;;2.25;0.70;;;13.30;88.20;;;;;;4954378;28;20905;-80
2023/03/24 22:16:26;;;;;;;1.67;0.68;;;12.90;89.20;;;;;;5320027;23;20210;-80
2023/03/24 22:18:53;;;;;;;2.20;0.70;;;12.90;89.20;;;;;;4943564;29;20110;-79
2023/03/24 22:21:18;;;;;;;0.88;0.52;;;12.90;89.30;;;;;;4943802;29;20023;-81
2023/03/24 22:23:44;;;;;;;2.10;0.82;;;12.90;89.20;;;;;;4936933;29;20123;-80
2023/03/24 22:26:13;;;;;;;1.33;0.77;;;12.80;89.20;;;;;;4939655;29;20034;-80
2023/03/24 22:28:39;;;;;;;1.63;0.80;;;12.90;89.30;;;;;;4932554;29;20141;-81
2023/03/24 22:31:15;;;;;;;1.95;0.80;;;12.90;89.30;;;;;;4945965;29;20066;-81
2023/03/24 22:33:42;;;;;;;1.75;0.80;;;12.80;89.20;;;;;;4964258;28;20023;-81
2023/03/24 22:36:08;;;;;;;1.45;0.70;;;12.90;89.30;;;;;;4949955;28;20117;-81
2023/03/24 22:38:34;;;;;;;2.58;0.73;;;12.90;89.30;;;;;;4934317;29;20081;-81
2023/03/24 22:41:03;;;;;;;1.42;0.70;;;12.90;89.30;;;;;;4959940;29;20031;-81
2023/03/24 22:43:29;;;;;;;2.22;0.80;;;12.90;89.80;;;;;;4962285;29;20027;-81
2023/03/24 22:45:55;;;;;;;1.15;0.68;;;12.90;89.30;;;;;;4958106;28;20107;-81
2023/03/24 22:48:21;;;;;;;1.17;0.70;;;12.90;89.20;;;;;;4961687;29;20116;-81
2023/03/24 22:50:47;;;;;;;1.92;0.80;;;12.80;89.10;;;;;;4953484;29;20016;-81
2023/03/24 22:53:12;;;;;;;1.15;0.55;;;12.90;89.30;;;;;;4941517;29;20524;-81